sensor_id;sensor_type;location;lat;lon;timestamp;temperature;humidity
15115;DHT22;7658;51.456;7.622;2023-07-22T00:01:01;13.60;99.90
15115;DHT22;7658;51.456;7.622;2023-07-22T00:03:27;13.60;99.90
15115;DHT22;7658;51.456;7.622;2023-07-22T00:06:06;13.50;99.90
15115;DHT22;7658;51.456;7.622;2023-07-22T00:08:33;13.40;99.90
15115;DHT22;7658;51.456;7.622;2023-07-22T00:10:59;13.40;99.90
15115;DHT22;7658;51.456;7.622;2023-07-22T00:13:25;13.50;99.90
15115;DHT22;7658;51.456;7.622;2023-07-22T00:15:54;13.50;99.90
15115;DHT22;7658;51.456;7.622;2023-07-22T00:18:21;13.50;99.90
15115;DHT22;7658;51.456;7.622;2023-07-22T00:20:47;13.50;99.90
15115;DHT22;7658;51.456;7.622;2023-07-22T00:23:13;13.60;99.90
15115;DHT22;7658;51.456;7.622;2023-07-22T00:25:41;13.60;99.90
15115;DHT22;7658;51.456;7.622;2023-07-22T00:28:07;13.50;99.90
15115;DHT22;7658;51.456;7.622;2023-07-22T00:30:33;13.40;99.90
15115;DHT22;7658;51.456;7.622;2023-07-22T00:33:00;13.40;99.90
15115;DHT22;7658;51.456;7.622;2023-07-22T00:35:26;13.30;99.90
15115;DHT22;7658;51.456;7.622;2023-07-22T00:37:52;13.30;99.90
15115;DHT22;7658;51.456;7.622;2023-07-22T00:40:18;13.20;99.90
15115;DHT22;7658;51.456;7.622;2023-07-22T00:42:44;13.20;99.90
15115;DHT22;7658;51.456;7.622;2023-07-22T00:45:10;13.20;99.90
15115;DHT22;7658;51.456;7.622;2023-07-22T00:47:36;13.10;99.90
15115;DHT22;7658;51.456;7.622;2023-07-22T00:50:06;13.10;99.90
15115;DHT22;7658;51.456;7.622;2023-07-22T00:52:33;13.00;99.90
15115;DHT22;7658;51.456;7.622;2023-07-22T00:54:59;12.90;99.90
15115;DHT22;7658;51.456;7.622;2023-07-22T00:57:25;12.90;99.90
15115;DHT22;7658;51.456;7.622;2023-07-22T00:59:51;12.80;99.90
15115;DHT22;7658;51.456;7.622;2023-07-22T01:02:18;12.80;99.90
15115;DHT22;7658;51.456;7.622;2023-07-22T01:04:44;12.70;99.90
15115;DHT22;7658;51.456;7.622;2023-07-22T01:07:11;12.70;99.90
15115;DHT22;7658;51.456;7.622;2023-07-22T01:09:41;12.60;99.90
15115;DHT22;7658;51.456;7.622;2023-07-22T01:12:08;12.60;99.90
15115;DHT22;7658;51.456;7.622;2023-07-22T01:14:37;12.60;99.90
15115;DHT22;7658;51.456;7.622;2023-07-22T01:17:05;12.60;99.90
15115;DHT22;7658;51.456;7.622;2023-07-22T01:19:32;12.60;99.90
15115;DHT22;7658;51.456;7.622;2023-07-22T01:22:06;12.70;99.90
15115;DHT22;7658;51.456;7.622;2023-07-22T01:24:33;12.70;99.90
15115;DHT22;7658;51.456;7.622;2023-07-22T01:27:00;12.80;99.90
15115;DHT22;7658;51.456;7.622;2023-07-22T01:29:26;12.80;99.90
15115;DHT22;7658;51.456;7.622;2023-07-22T01:31:54;12.80;99.90
15115;DHT22;7658;51.456;7.622;2023-07-22T01:34:20;12.90;99.90
15115;DHT22;7658;51.456;7.622;2023-07-22T01:36:47;12.90;99.90
15115;DHT22;7658;51.456;7.622;2023-07-22T01:39:13;12.80;99.90
15115;DHT22;7658;51.456;7.622;2023-07-22T01:41:40;12.80;99.90
15115;DHT22;7658;51.456;7.622;2023-07-22T01:44:05;12.70;99.90
15115;DHT22;7658;51.456;7.622;2023-07-22T01:46:31;12.60;99.90
15115;DHT22;7658;51.456;7.622;2023-07-22T01:48:57;12.50;99.90
15115;DHT22;7658;51.456;7.622;2023-07-22T01:51:23;12.50;99.90
15115;DHT22;7658;51.456;7.622;2023-07-22T01:53:48;12.60;99.90
15115;DHT22;7658;51.456;7.622;2023-07-22T01:56:15;12.60;99.90
15115;DHT22;7658;51.456;7.622;2023-07-22T01:58:42;12.60;99.90
15115;DHT22;7658;51.456;7.622;2023-07-22T02:01:08;12.60;99.90
15115;DHT22;7658;51.456;7.622;2023-07-22T02:03:33;12.50;99.90
15115;DHT22;7658;51.456;7.622;2023-07-22T02:06:05;12.50;99.90
15115;DHT22;7658;51.456;7.622;2023-07-22T02:08:31;12.50;99.90
15115;DHT22;7658;51.456;7.622;2023-07-22T02:11:04;12.40;99.90
15115;DHT22;7658;51.456;7.622;2023-07-22T02:13:31;12.50;99.90
15115;DHT22;7658;51.456;7.622;2023-07-22T02:15:58;12.50;99.90
15115;DHT22;7658;51.456;7.622;2023-07-22T02:18:24;12.40;99.90
15115;DHT22;7658;51.456;7.622;2023-07-22T02:20:50;12.30;99.90
15115;DHT22;7658;51.456;7.622;2023-07-22T02:23:15;12.40;99.90
15115;DHT22;7658;51.456;7.622;2023-07-22T02:25:41;12.30;99.90
15115;DHT22;7658;51.456;7.622;2023-07-22T02:28:07;12.30;99.90
15115;DHT22;7658;51.456;7.622;2023-07-22T02:30:38;12.20;99.90
15115;DHT22;7658;51.456;7.622;2023-07-22T02:33:05;12.20;99.90
15115;DHT22;7658;51.456;7.622;2023-07-22T02:35:31;12.20;99.90
15115;DHT22;7658;51.456;7.622;2023-07-22T02:37:57;12.20;99.90
15115;DHT22;7658;51.456;7.622;2023-07-22T02:40:22;12.10;99.90
15115;DHT22;7658;51.456;7.622;2023-07-22T02:42:48;12.10;99.90
15115;DHT22;7658;51.456;7.622;2023-07-22T02:45:14;12.10;99.90
15115;DHT22;7658;51.456;7.622;2023-07-22T02:47:39;12.10;99.90
15115;DHT22;7658;51.456;7.622;2023-07-22T02:50:06;12.10;99.90
15115;DHT22;7658;51.456;7.622;2023-07-22T02:52:32;12.10;99.90
15115;DHT22;7658;51.456;7.622;2023-07-22T02:55:14;12.10;99.90
15115;DHT22;7658;51.456;7.622;2023-07-22T02:57:41;12.10;99.90
15115;DHT22;7658;51.456;7.622;2023-07-22T03:00:08;12.30;99.90
15115;DHT22;7658;51.456;7.622;2023-07-22T03:02:35;12.30;99.90
15115;DHT22;7658;51.456;7.622;2023-07-22T03:05:01;12.30;99.90
15115;DHT22;7658;51.456;7.622;2023-07-22T03:07:28;12.30;99.90
15115;DHT22;7658;51.456;7.622;2023-07-22T03:09:54;12.40;99.90
15115;DHT22;7658;51.456;7.622;2023-07-22T03:12:19;12.40;99.90
15115;DHT22;7658;51.456;7.622;2023-07-22T03:14:45;12.40;99.90
15115;DHT22;7658;51.456;7.622;2023-07-22T03:17:11;12.40;99.90
15115;DHT22;7658;51.456;7.622;2023-07-22T03:19:39;12.40;99.90
15115;DHT22;7658;51.456;7.622;2023-07-22T03:22:05;12.40;99.90
15115;DHT22;7658;51.456;7.622;2023-07-22T03:24:31;12.40;99.90
15115;DHT22;7658;51.456;7.622;2023-07-22T03:26:57;12.30;99.90
15115;DHT22;7658;51.456;7.622;2023-07-22T03:29:23;12.40;99.90
15115;DHT22;7658;51.456;7.622;2023-07-22T03:31:50;12.40;99.90
15115;DHT22;7658;51.456;7.622;2023-07-22T03:34:15;12.40;99.90
15115;DHT22;7658;51.456;7.622;2023-07-22T03:36:41;12.40;99.90
15115;DHT22;7658;51.456;7.622;2023-07-22T03:39:08;12.40;99.90
15115;DHT22;7658;51.456;7.622;2023-07-22T03:41:34;12.40;99.90
15115;DHT22;7658;51.456;7.622;2023-07-22T03:44:00;12.40;99.90
15115;DHT22;7658;51.456;7.622;2023-07-22T03:46:25;12.50;99.90
15115;DHT22;7658;51.456;7.622;2023-07-22T03:48:51;12.50;99.90
15115;DHT22;7658;51.456;7.622;2023-07-22T03:51:17;12.50;99.90
15115;DHT22;7658;51.456;7.622;2023-07-22T03:53:43;12.50;99.90
15115;DHT22;7658;51.456;7.622;2023-07-22T03:56:08;12.50;99.90
15115;DHT22;7658;51.456;7.622;2023-07-22T03:58:34;12.40;99.90
15115;DHT22;7658;51.456;7.622;2023-07-22T04:01:00;12.40;99.90
15115;DHT22;7658;51.456;7.622;2023-07-22T04:03:26;12.50;99.90
15115;DHT22;7658;51.456;7.622;2023-07-22T04:05:57;12.60;99.90
15115;DHT22;7658;51.456;7.622;2023-07-22T04:08:23;12.60;99.90
15115;DHT22;7658;51.456;7.622;2023-07-22T04:10:56;12.70;99.90
15115;DHT22;7658;51.456;7.622;2023-07-22T04:13:24;12.80;99.90
15115;DHT22;7658;51.456;7.622;2023-07-22T04:15:50;12.90;99.90
15115;DHT22;7658;51.456;7.622;2023-07-22T04:18:17;12.90;99.90
15115;DHT22;7658;51.456;7.622;2023-07-22T04:20:43;13.00;99.90
15115;DHT22;7658;51.456;7.622;2023-07-22T04:23:09;13.00;99.90
15115;DHT22;7658;51.456;7.622;2023-07-22T04:25:44;13.00;99.90
15115;DHT22;7658;51.456;7.622;2023-07-22T04:28:11;13.00;99.90
15115;DHT22;7658;51.456;7.622;2023-07-22T04:30:37;13.00;99.90
15115;DHT22;7658;51.456;7.622;2023-07-22T04:33:03;13.00;99.90
15115;DHT22;7658;51.456;7.622;2023-07-22T04:35:37;13.00;99.90
15115;DHT22;7658;51.456;7.622;2023-07-22T04:38:03;13.00;99.90
15115;DHT22;7658;51.456;7.622;2023-07-22T04:40:30;13.10;99.90
15115;DHT22;7658;51.456;7.622;2023-07-22T04:42:56;13.10;99.90
15115;DHT22;7658;51.456;7.622;2023-07-22T04:45:22;13.20;99.90
15115;DHT22;7658;51.456;7.622;2023-07-22T04:47:51;13.30;99.90
15115;DHT22;7658;51.456;7.622;2023-07-22T04:50:17;13.30;99.90
15115;DHT22;7658;51.456;7.622;2023-07-22T04:52:46;13.40;99.90
15115;DHT22;7658;51.456;7.622;2023-07-22T04:55:13;13.40;99.90
15115;DHT22;7658;51.456;7.622;2023-07-22T04:57:40;13.50;99.90
15115;DHT22;7658;51.456;7.622;2023-07-22T05:00:16;13.50;99.90
15115;DHT22;7658;51.456;7.622;2023-07-22T05:02:42;13.60;99.90
15115;DHT22;7658;51.456;7.622;2023-07-22T05:05:12;13.60;99.90
15115;DHT22;7658;51.456;7.622;2023-07-22T05:07:38;13.60;99.90
15115;DHT22;7658;51.456;7.622;2023-07-22T05:10:04;13.60;99.90
15115;DHT22;7658;51.456;7.622;2023-07-22T05:12:30;13.60;99.90
15115;DHT22;7658;51.456;7.622;2023-07-22T05:14:56;13.60;99.90
15115;DHT22;7658;51.456;7.622;2023-07-22T05:17:21;13.60;99.90
15115;DHT22;7658;51.456;7.622;2023-07-22T05:19:47;13.60;99.90
15115;DHT22;7658;51.456;7.622;2023-07-22T05:22:14;13.70;99.90
15115;DHT22;7658;51.456;7.622;2023-07-22T05:24:40;13.80;99.90
15115;DHT22;7658;51.456;7.622;2023-07-22T05:27:06;13.80;99.90
15115;DHT22;7658;51.456;7.622;2023-07-22T05:29:32;13.90;99.90
15115;DHT22;7658;51.456;7.622;2023-07-22T05:31:57;14.00;99.90
15115;DHT22;7658;51.456;7.622;2023-07-22T05:34:23;14.10;99.90
15115;DHT22;7658;51.456;7.622;2023-07-22T05:36:49;14.20;99.90
15115;DHT22;7658;51.456;7.622;2023-07-22T05:39:14;14.30;99.90
15115;DHT22;7658;51.456;7.622;2023-07-22T05:41:43;14.40;99.90
15115;DHT22;7658;51.456;7.622;2023-07-22T05:44:08;14.50;99.90
15115;DHT22;7658;51.456;7.622;2023-07-22T05:46:34;14.60;99.90
15115;DHT22;7658;51.456;7.622;2023-07-22T05:49:00;14.60;99.90
15115;DHT22;7658;51.456;7.622;2023-07-22T05:51:26;14.60;99.90
15115;DHT22;7658;51.456;7.622;2023-07-22T05:53:52;14.60;99.90
15115;DHT22;7658;51.456;7.622;2023-07-22T05:56:17;14.60;99.90
15115;DHT22;7658;51.456;7.622;2023-07-22T05:58:43;14.70;99.90
15115;DHT22;7658;51.456;7.622;2023-07-22T06:01:10;14.70;99.90
15115;DHT22;7658;51.456;7.622;2023-07-22T06:03:37;14.80;99.90
15115;DHT22;7658;51.456;7.622;2023-07-22T06:06:03;14.90;99.90
15115;DHT22;7658;51.456;7.622;2023-07-22T06:08:29;15.00;99.90
15115;DHT22;7658;51.456;7.622;2023-07-22T06:10:56;15.10;99.90
15115;DHT22;7658;51.456;7.622;2023-07-22T06:13:22;15.20;99.90
15115;DHT22;7658;51.456;7.622;2023-07-22T06:15:47;15.30;99.90
15115;DHT22;7658;51.456;7.622;2023-07-22T06:18:13;15.40;99.90
15115;DHT22;7658;51.456;7.622;2023-07-22T06:20:39;15.50;99.90
15115;DHT22;7658;51.456;7.622;2023-07-22T06:23:05;15.60;99.90
15115;DHT22;7658;51.456;7.622;2023-07-22T06:25:31;15.70;99.90
15115;DHT22;7658;51.456;7.622;2023-07-22T06:27:57;15.80;99.90
15115;DHT22;7658;51.456;7.622;2023-07-22T06:30:23;15.90;99.90
15115;DHT22;7658;51.456;7.622;2023-07-22T06:32:49;15.90;99.90
15115;DHT22;7658;51.456;7.622;2023-07-22T06:35:14;16.00;99.90
15115;DHT22;7658;51.456;7.622;2023-07-22T06:37:40;16.10;99.90
15115;DHT22;7658;51.456;7.622;2023-07-22T06:40:06;16.20;99.90
15115;DHT22;7658;51.456;7.622;2023-07-22T06:42:32;16.20;99.90
15115;DHT22;7658;51.456;7.622;2023-07-22T06:44:58;16.30;94.70
15115;DHT22;7658;51.456;7.622;2023-07-22T06:47:24;16.30;99.90
15115;DHT22;7658;51.456;7.622;2023-07-22T06:49:50;16.40;98.80
15115;DHT22;7658;51.456;7.622;2023-07-22T06:52:16;16.50;74.80
15115;DHT22;7658;51.456;7.622;2023-07-22T06:54:42;16.50;93.00
15115;DHT22;7658;51.456;7.622;2023-07-22T06:57:08;16.60;35.40
15115;DHT22;7658;51.456;7.622;2023-07-22T06:59:34;16.70;97.10
15115;DHT22;7658;51.456;7.622;2023-07-22T07:02:00;16.80;5.50
15115;DHT22;7658;51.456;7.622;2023-07-22T07:04:26;16.90;1.00
15115;DHT22;7658;51.456;7.622;2023-07-22T07:06:52;17.00;1.00
15115;DHT22;7658;51.456;7.622;2023-07-22T07:09:18;17.20;1.00
15115;DHT22;7658;51.456;7.622;2023-07-22T07:11:44;17.30;1.00
15115;DHT22;7658;51.456;7.622;2023-07-22T07:14:10;17.40;1.00
15115;DHT22;7658;51.456;7.622;2023-07-22T07:16:36;17.50;1.00
15115;DHT22;7658;51.456;7.622;2023-07-22T07:19:01;17.50;1.00
15115;DHT22;7658;51.456;7.622;2023-07-22T07:21:28;17.60;1.00
15115;DHT22;7658;51.456;7.622;2023-07-22T07:23:54;17.80;1.00
15115;DHT22;7658;51.456;7.622;2023-07-22T07:26:21;17.80;1.00
15115;DHT22;7658;51.456;7.622;2023-07-22T07:28:48;18.00;1.00
15115;DHT22;7658;51.456;7.622;2023-07-22T07:31:14;18.20;1.00
15115;DHT22;7658;51.456;7.622;2023-07-22T07:33:40;18.20;1.00
15115;DHT22;7658;51.456;7.622;2023-07-22T07:36:06;18.20;1.00
15115;DHT22;7658;51.456;7.622;2023-07-22T07:38:32;18.20;1.00
15115;DHT22;7658;51.456;7.622;2023-07-22T07:41:00;18.20;1.00
15115;DHT22;7658;51.456;7.622;2023-07-22T07:43:26;18.20;1.00
15115;DHT22;7658;51.456;7.622;2023-07-22T07:48:37;18.50;1.00
15115;DHT22;7658;51.456;7.622;2023-07-22T07:51:03;18.50;1.00
15115;DHT22;7658;51.456;7.622;2023-07-22T07:53:29;18.50;99.90
15115;DHT22;7658;51.456;7.622;2023-07-22T07:55:55;18.50;99.90
15115;DHT22;7658;51.456;7.622;2023-07-22T07:58:20;18.60;1.00
15115;DHT22;7658;51.456;7.622;2023-07-22T08:00:46;18.60;99.90
15115;DHT22;7658;51.456;7.622;2023-07-22T08:03:12;18.70;99.90
15115;DHT22;7658;51.456;7.622;2023-07-22T08:05:37;18.80;99.90
15115;DHT22;7658;51.456;7.622;2023-07-22T08:08:03;18.80;99.90
15115;DHT22;7658;51.456;7.622;2023-07-22T08:10:29;18.90;1.00
15115;DHT22;7658;51.456;7.622;2023-07-22T08:12:55;18.90;1.00
15115;DHT22;7658;51.456;7.622;2023-07-22T08:15:20;18.90;1.00
15115;DHT22;7658;51.456;7.622;2023-07-22T08:17:46;19.00;99.90
15115;DHT22;7658;51.456;7.622;2023-07-22T08:20:12;19.00;1.00
15115;DHT22;7658;51.456;7.622;2023-07-22T08:22:38;19.10;1.00
15115;DHT22;7658;51.456;7.622;2023-07-22T08:25:04;19.00;99.90
15115;DHT22;7658;51.456;7.622;2023-07-22T08:27:30;19.00;99.90
15115;DHT22;7658;51.456;7.622;2023-07-22T08:29:55;19.10;99.90
15115;DHT22;7658;51.456;7.622;2023-07-22T08:32:21;19.20;1.00
15115;DHT22;7658;51.456;7.622;2023-07-22T08:34:47;19.30;1.00
15115;DHT22;7658;51.456;7.622;2023-07-22T08:37:12;19.70;99.90
15115;DHT22;7658;51.456;7.622;2023-07-22T08:39:38;20.10;1.00
15115;DHT22;7658;51.456;7.622;2023-07-22T08:42:04;20.30;1.00
15115;DHT22;7658;51.456;7.622;2023-07-22T08:44:33;20.30;1.00
15115;DHT22;7658;51.456;7.622;2023-07-22T08:47:02;20.60;1.00
15115;DHT22;7658;51.456;7.622;2023-07-22T08:49:32;20.90;1.00
15115;DHT22;7658;51.456;7.622;2023-07-22T08:51:59;20.70;99.90
15115;DHT22;7658;51.456;7.622;2023-07-22T08:54:25;20.90;99.60
15115;DHT22;7658;51.456;7.622;2023-07-22T08:56:51;21.10;74.40
15115;DHT22;7658;51.456;7.622;2023-07-22T08:59:18;21.40;99.90
15115;DHT22;7658;51.456;7.622;2023-07-22T09:01:44;21.70;99.90
15115;DHT22;7658;51.456;7.622;2023-07-22T09:04:11;21.80;99.90
15115;DHT22;7658;51.456;7.622;2023-07-22T09:06:37;21.80;99.90
15115;DHT22;7658;51.456;7.622;2023-07-22T09:09:03;21.50;99.90
15115;DHT22;7658;51.456;7.622;2023-07-22T09:11:33;21.20;99.90
15115;DHT22;7658;51.456;7.622;2023-07-22T09:14:01;21.00;99.90
15115;DHT22;7658;51.456;7.622;2023-07-22T09:16:27;20.70;99.90
15115;DHT22;7658;51.456;7.622;2023-07-22T09:19:00;20.70;99.90
15115;DHT22;7658;51.456;7.622;2023-07-22T09:21:26;20.60;99.90
15115;DHT22;7658;51.456;7.622;2023-07-22T09:23:53;20.70;99.90
15115;DHT22;7658;51.456;7.622;2023-07-22T09:26:19;20.70;99.90
15115;DHT22;7658;51.456;7.622;2023-07-22T09:28:58;21.00;99.90
15115;DHT22;7658;51.456;7.622;2023-07-22T09:31:26;21.30;99.90
15115;DHT22;7658;51.456;7.622;2023-07-22T09:33:52;21.30;99.90
15115;DHT22;7658;51.456;7.622;2023-07-22T09:36:21;21.50;99.90
15115;DHT22;7658;51.456;7.622;2023-07-22T09:39:02;21.50;99.90
15115;DHT22;7658;51.456;7.622;2023-07-22T09:41:29;21.40;99.90
15115;DHT22;7658;51.456;7.622;2023-07-22T09:43:56;21.40;99.90
15115;DHT22;7658;51.456;7.622;2023-07-22T09:46:33;21.40;99.90
15115;DHT22;7658;51.456;7.622;2023-07-22T09:49:03;21.30;99.90
15115;DHT22;7658;51.456;7.622;2023-07-22T09:51:34;20.90;99.90
15115;DHT22;7658;51.456;7.622;2023-07-22T09:54:01;20.50;99.90
15115;DHT22;7658;51.456;7.622;2023-07-22T09:56:28;20.40;99.90
15115;DHT22;7658;51.456;7.622;2023-07-22T09:58:54;20.30;99.90
15115;DHT22;7658;51.456;7.622;2023-07-22T10:01:25;20.10;99.90
15115;DHT22;7658;51.456;7.622;2023-07-22T10:03:53;20.00;99.90
15115;DHT22;7658;51.456;7.622;2023-07-22T10:06:28;20.10;99.90
15115;DHT22;7658;51.456;7.622;2023-07-22T10:09:01;20.20;99.90
15115;DHT22;7658;51.456;7.622;2023-07-22T10:11:28;20.20;99.90
15115;DHT22;7658;51.456;7.622;2023-07-22T10:13:55;20.40;99.90
15115;DHT22;7658;51.456;7.622;2023-07-22T10:16:22;20.50;99.90
15115;DHT22;7658;51.456;7.622;2023-07-22T10:18:48;20.70;99.90
15115;DHT22;7658;51.456;7.622;2023-07-22T10:21:14;21.00;99.90
15115;DHT22;7658;51.456;7.622;2023-07-22T10:23:41;21.10;99.90
15115;DHT22;7658;51.456;7.622;2023-07-22T10:26:08;21.10;99.90
15115;DHT22;7658;51.456;7.622;2023-07-22T10:28:39;21.00;99.90
15115;DHT22;7658;51.456;7.622;2023-07-22T10:31:06;21.00;99.90
15115;DHT22;7658;51.456;7.622;2023-07-22T10:33:32;20.90;99.90
15115;DHT22;7658;51.456;7.622;2023-07-22T10:36:05;20.90;99.90
15115;DHT22;7658;51.456;7.622;2023-07-22T10:38:31;20.90;99.90
15115;DHT22;7658;51.456;7.622;2023-07-22T10:40:58;21.00;99.90
15115;DHT22;7658;51.456;7.622;2023-07-22T10:43:34;21.20;99.90
15115;DHT22;7658;51.456;7.622;2023-07-22T10:46:06;21.40;99.90
15115;DHT22;7658;51.456;7.622;2023-07-22T10:48:37;21.70;99.90
15115;DHT22;7658;51.456;7.622;2023-07-22T10:51:11;21.90;99.90
15115;DHT22;7658;51.456;7.622;2023-07-22T10:53:42;22.10;99.90
15115;DHT22;7658;51.456;7.622;2023-07-22T10:56:19;22.10;99.90
15115;DHT22;7658;51.456;7.622;2023-07-22T11:07:03;21.60;99.90
15115;DHT22;7658;51.456;7.622;2023-07-22T11:11:59;21.30;99.90
15115;DHT22;7658;51.456;7.622;2023-07-22T11:14:33;21.20;99.90
15115;DHT22;7658;51.456;7.622;2023-07-22T11:17:03;21.20;99.90
15115;DHT22;7658;51.456;7.622;2023-07-22T11:19:33;21.20;99.90
15115;DHT22;7658;51.456;7.622;2023-07-22T11:22:00;21.60;99.90
15115;DHT22;7658;51.456;7.622;2023-07-22T11:24:26;22.10;99.90
15115;DHT22;7658;51.456;7.622;2023-07-22T11:26:53;21.80;99.90
15115;DHT22;7658;51.456;7.622;2023-07-22T11:29:20;21.80;99.90
15115;DHT22;7658;51.456;7.622;2023-07-22T11:31:47;21.90;99.90
15115;DHT22;7658;51.456;7.622;2023-07-22T11:34:18;22.00;99.90
15115;DHT22;7658;51.456;7.622;2023-07-22T11:36:45;22.30;99.90
15115;DHT22;7658;51.456;7.622;2023-07-22T11:39:15;22.50;99.90
15115;DHT22;7658;51.456;7.622;2023-07-22T11:41:42;22.60;99.90
15115;DHT22;7658;51.456;7.622;2023-07-22T11:44:13;22.50;99.90
15115;DHT22;7658;51.456;7.622;2023-07-22T11:49:34;22.40;99.90
15115;DHT22;7658;51.456;7.622;2023-07-22T11:52:07;22.50;99.90
15115;DHT22;7658;51.456;7.622;2023-07-22T11:54:35;22.70;99.90
15115;DHT22;7658;51.456;7.622;2023-07-22T11:59:46;22.40;99.90
15115;DHT22;7658;51.456;7.622;2023-07-22T12:02:14;22.40;99.90
15115;DHT22;7658;51.456;7.622;2023-07-22T12:04:40;22.40;99.90
15115;DHT22;7658;51.456;7.622;2023-07-22T12:07:06;22.70;99.90
15115;DHT22;7658;51.456;7.622;2023-07-22T12:09:32;22.70;99.90
15115;DHT22;7658;51.456;7.622;2023-07-22T12:12:00;22.50;99.90
15115;DHT22;7658;51.456;7.622;2023-07-22T12:14:33;22.20;99.90
15115;DHT22;7658;51.456;7.622;2023-07-22T12:17:02;22.50;99.90
15115;DHT22;7658;51.456;7.622;2023-07-22T12:19:29;22.70;99.90
15115;DHT22;7658;51.456;7.622;2023-07-22T12:21:55;23.10;99.90
15115;DHT22;7658;51.456;7.622;2023-07-22T12:24:21;23.30;99.90
15115;DHT22;7658;51.456;7.622;2023-07-22T12:26:47;23.50;99.90
15115;DHT22;7658;51.456;7.622;2023-07-22T12:29:13;23.40;99.90
15115;DHT22;7658;51.456;7.622;2023-07-22T12:31:38;23.20;99.90
15115;DHT22;7658;51.456;7.622;2023-07-22T12:34:04;22.90;99.90
15115;DHT22;7658;51.456;7.622;2023-07-22T12:36:30;23.00;99.90
15115;DHT22;7658;51.456;7.622;2023-07-22T12:38:55;23.30;99.90
15115;DHT22;7658;51.456;7.622;2023-07-22T12:41:21;23.30;99.90
15115;DHT22;7658;51.456;7.622;2023-07-22T12:43:47;23.20;99.90
15115;DHT22;7658;51.456;7.622;2023-07-22T12:46:14;22.90;99.90
15115;DHT22;7658;51.456;7.622;2023-07-22T12:48:40;23.00;99.90
15115;DHT22;7658;51.456;7.622;2023-07-22T12:51:06;22.90;99.90
15115;DHT22;7658;51.456;7.622;2023-07-22T12:53:32;22.80;99.90
15115;DHT22;7658;51.456;7.622;2023-07-22T12:55:57;22.70;99.90
15115;DHT22;7658;51.456;7.622;2023-07-22T12:58:23;22.70;99.90
15115;DHT22;7658;51.456;7.622;2023-07-22T13:00:49;22.90;99.90
15115;DHT22;7658;51.456;7.622;2023-07-22T13:03:14;23.20;99.90
15115;DHT22;7658;51.456;7.622;2023-07-22T13:05:40;23.40;99.90
15115;DHT22;7658;51.456;7.622;2023-07-22T13:08:06;23.40;99.90
15115;DHT22;7658;51.456;7.622;2023-07-22T13:10:32;23.50;99.90
15115;DHT22;7658;51.456;7.622;2023-07-22T13:12:59;23.80;99.90
15115;DHT22;7658;51.456;7.622;2023-07-22T13:15:27;24.00;99.90
15115;DHT22;7658;51.456;7.622;2023-07-22T13:17:52;23.90;99.90
15115;DHT22;7658;51.456;7.622;2023-07-22T13:20:18;23.50;99.90
15115;DHT22;7658;51.456;7.622;2023-07-22T13:22:44;23.20;99.90
15115;DHT22;7658;51.456;7.622;2023-07-22T13:25:10;23.40;99.90
15115;DHT22;7658;51.456;7.622;2023-07-22T13:27:36;23.50;99.90
15115;DHT22;7658;51.456;7.622;2023-07-22T13:30:06;23.30;99.90
15115;DHT22;7658;51.456;7.622;2023-07-22T13:32:32;23.30;99.90
15115;DHT22;7658;51.456;7.622;2023-07-22T13:34:58;23.40;99.90
15115;DHT22;7658;51.456;7.622;2023-07-22T13:37:24;23.20;99.90
15115;DHT22;7658;51.456;7.622;2023-07-22T13:39:49;23.20;99.90
15115;DHT22;7658;51.456;7.622;2023-07-22T13:42:15;23.10;99.90
15115;DHT22;7658;51.456;7.622;2023-07-22T13:44:41;23.40;99.90
15115;DHT22;7658;51.456;7.622;2023-07-22T13:47:07;23.70;99.90
15115;DHT22;7658;51.456;7.622;2023-07-22T13:49:33;23.80;99.90
15115;DHT22;7658;51.456;7.622;2023-07-22T13:51:58;23.90;99.90
15115;DHT22;7658;51.456;7.622;2023-07-22T13:54:24;23.90;99.90
15115;DHT22;7658;51.456;7.622;2023-07-22T13:56:50;23.70;99.90
15115;DHT22;7658;51.456;7.622;2023-07-22T13:59:16;23.60;99.90
15115;DHT22;7658;51.456;7.622;2023-07-22T14:01:42;23.30;99.90
15115;DHT22;7658;51.456;7.622;2023-07-22T14:04:08;23.30;99.90
15115;DHT22;7658;51.456;7.622;2023-07-22T14:06:34;23.80;99.90
15115;DHT22;7658;51.456;7.622;2023-07-22T14:09:00;24.10;99.90
15115;DHT22;7658;51.456;7.622;2023-07-22T14:11:26;24.00;99.90
15115;DHT22;7658;51.456;7.622;2023-07-22T14:13:52;23.80;99.90
15115;DHT22;7658;51.456;7.622;2023-07-22T14:16:18;23.40;99.90
15115;DHT22;7658;51.456;7.622;2023-07-22T14:18:44;23.60;99.90
15115;DHT22;7658;51.456;7.622;2023-07-22T14:21:10;23.50;99.90
15115;DHT22;7658;51.456;7.622;2023-07-22T14:23:37;23.50;99.90
15115;DHT22;7658;51.456;7.622;2023-07-22T14:26:03;23.50;99.90
15115;DHT22;7658;51.456;7.622;2023-07-22T14:28:28;24.10;99.90
15115;DHT22;7658;51.456;7.622;2023-07-22T14:30:54;24.80;99.90
15115;DHT22;7658;51.456;7.622;2023-07-22T14:33:20;25.20;99.90
15115;DHT22;7658;51.456;7.622;2023-07-22T14:35:46;25.50;99.90
15115;DHT22;7658;51.456;7.622;2023-07-22T14:38:11;25.60;99.90
15115;DHT22;7658;51.456;7.622;2023-07-22T14:40:37;25.30;99.90
15115;DHT22;7658;51.456;7.622;2023-07-22T14:43:03;25.10;99.90
15115;DHT22;7658;51.456;7.622;2023-07-22T14:45:29;24.90;99.90
15115;DHT22;7658;51.456;7.622;2023-07-22T14:47:55;25.20;99.90
15115;DHT22;7658;51.456;7.622;2023-07-22T14:50:21;25.20;99.90
15115;DHT22;7658;51.456;7.622;2023-07-22T14:52:47;25.40;99.90
15115;DHT22;7658;51.456;7.622;2023-07-22T14:55:13;25.70;99.90
15115;DHT22;7658;51.456;7.622;2023-07-22T14:57:39;25.60;99.90
15115;DHT22;7658;51.456;7.622;2023-07-22T15:00:06;25.80;99.90
15115;DHT22;7658;51.456;7.622;2023-07-22T15:02:32;25.80;99.90
15115;DHT22;7658;51.456;7.622;2023-07-22T15:04:58;25.30;99.90
15115;DHT22;7658;51.456;7.622;2023-07-22T15:07:24;24.70;99.90
15115;DHT22;7658;51.456;7.622;2023-07-22T15:09:51;24.40;99.90
15115;DHT22;7658;51.456;7.622;2023-07-22T15:12:18;24.20;99.90
15115;DHT22;7658;51.456;7.622;2023-07-22T15:14:44;24.50;99.90
15115;DHT22;7658;51.456;7.622;2023-07-22T15:17:10;25.00;99.90
15115;DHT22;7658;51.456;7.622;2023-07-22T15:19:35;25.40;99.90
15115;DHT22;7658;51.456;7.622;2023-07-22T15:22:01;25.90;99.90
15115;DHT22;7658;51.456;7.622;2023-07-22T15:24:28;25.70;99.90
15115;DHT22;7658;51.456;7.622;2023-07-22T15:26:54;25.70;99.90
15115;DHT22;7658;51.456;7.622;2023-07-22T15:29:19;25.70;99.90
15115;DHT22;7658;51.456;7.622;2023-07-22T15:31:45;25.70;99.90
15115;DHT22;7658;51.456;7.622;2023-07-22T15:34:11;25.60;99.90
15115;DHT22;7658;51.456;7.622;2023-07-22T15:36:37;25.60;99.90
15115;DHT22;7658;51.456;7.622;2023-07-22T15:39:03;25.60;99.90
15115;DHT22;7658;51.456;7.622;2023-07-22T15:41:29;25.80;99.90
15115;DHT22;7658;51.456;7.622;2023-07-22T15:43:54;25.10;99.90
15115;DHT22;7658;51.456;7.622;2023-07-22T15:46:20;24.60;99.90
15115;DHT22;7658;51.456;7.622;2023-07-22T15:48:47;24.50;99.90
15115;DHT22;7658;51.456;7.622;2023-07-22T15:51:13;24.50;99.90
15115;DHT22;7658;51.456;7.622;2023-07-22T15:53:39;24.50;99.90
15115;DHT22;7658;51.456;7.622;2023-07-22T15:56:04;24.60;99.90
15115;DHT22;7658;51.456;7.622;2023-07-22T15:58:30;24.50;99.90
15115;DHT22;7658;51.456;7.622;2023-07-22T16:00:56;24.70;99.90
15115;DHT22;7658;51.456;7.622;2023-07-22T16:03:21;24.70;99.90